Time;durP1;ratioP1;P1;durP2;ratioP2;P2;SDS_P1;SDS_P2;PMS_P1;PMS_P2;Temp;Humidity;BMP_temperature;BMP_pressure;BME280_temperature;BME280_humidity;BME280_pressure;Samples;Min_cycle;Max_cycle;Signal;HPM_P1;HPM_P2
2021/12/15 00:01:21;;;;;;;0.40;0.40;;;8.90;99.90;;;;;;5093795;28;20419;-70
2021/12/15 00:04:09;;;;;;;0.40;0.40;;;8.90;99.90;;;;;;5093420;28;20414;-71
2021/12/15 00:06:56;;;;;;;0.40;0.40;;;8.80;99.90;;;;;;5093214;28;20449;-70
2021/12/15 00:09:43;;;;;;;1.77;1.67;;;8.90;99.90;;;;;;5092789;28;20418;-70
2021/12/15 00:12:31;;;;;;;0.40;0.40;;;9.00;99.90;;;;;;5093618;28;20422;-71
2021/12/15 00:15:21;;;;;;;0.40;0.40;;;9.00;99.90;;;;;;5092521;28;20894;-71
2021/12/15 00:18:08;;;;;;;0.50;0.50;;;9.00;99.90;;;;;;5093279;28;20553;-70
2021/12/15 00:20:55;;;;;;;0.40;0.40;;;9.10;99.90;;;;;;5092691;28;20426;-71
2021/12/15 00:23:44;;;;;;;0.40;0.40;;;9.10;99.90;;;;;;5092660;28;20475;-70
2021/12/15 00:26:31;;;;;;;0.40;0.40;;;9.00;99.90;;;;;;5092596;28;20446;-70
2021/12/15 00:29:19;;;;;;;0.40;0.40;;;9.00;99.90;;;;;;5092544;28;20426;-71
2021/12/15 00:32:07;;;;;;;0.50;0.50;;;8.80;99.90;;;;;;5093207;28;20839;-70
2021/12/15 00:34:54;;;;;;;0.40;0.40;;;8.80;99.90;;;;;;5092932;28;20488;-71
2021/12/15 00:37:41;;;;;;;0.90;0.90;;;8.90;99.90;;;;;;5092264;28;20446;-70
2021/12/15 00:40:28;;;;;;;0.60;0.60;;;8.80;99.90;;;;;;5092065;28;20418;-70
2021/12/15 00:43:15;;;;;;;0.40;0.40;;;8.80;99.90;;;;;;5092645;28;20454;-71
2021/12/15 00:46:05;;;;;;;0.40;0.40;;;8.80;99.90;;;;;;5092462;28;20849;-70
2021/12/15 00:48:52;;;;;;;0.50;0.50;;;8.70;99.90;;;;;;5092302;28;20422;-70
2021/12/15 00:51:40;;;;;;;0.70;0.70;;;8.70;99.90;;;;;;5092360;28;20423;-70
2021/12/15 00:54:27;;;;;;;0.43;0.43;;;8.60;99.90;;;;;;5092703;28;20429;-71
2021/12/15 00:57:14;;;;;;;0.40;0.40;;;8.60;99.90;;;;;;5092779;28;20453;-71
2021/12/15 01:00:03;;;;;;;4.23;1.80;;;8.60;99.90;;;;;;5092603;28;20422;-71
2021/12/15 01:02:53;;;;;;;2.20;2.00;;;8.60;99.90;;;;;;5093166;28;20438;-70
2021/12/15 01:05:42;;;;;;;0.50;0.50;;;8.60;99.90;;;;;;5092647;28;20815;-70
2021/12/15 01:08:32;;;;;;;0.40;0.40;;;8.60;99.90;;;;;;5093290;28;20422;-71
2021/12/15 01:11:28;;;;;;;0.40;0.40;;;8.70;99.90;;;;;;5092999;28;20418;-71
2021/12/15 01:19:44;;;;;;;0.40;0.40;;;8.70;99.90;;;;;;5092879;28;20441;-70
2021/12/15 01:20:53;;;;;;;2.00;1.93;;;8.60;99.90;;;;;;5093337;28;20804;-71
2021/12/15 01:23:40;;;;;;;1.10;1.00;;;8.70;99.90;;;;;;5093514;28;20476;-70
2021/12/15 01:26:27;;;;;;;1.50;1.50;;;8.70;99.90;;;;;;5092532;28;20480;-71
2021/12/15 01:29:15;;;;;;;0.40;0.40;;;8.70;99.90;;;;;;5091978;28;20466;-71
2021/12/15 01:32:02;;;;;;;0.70;0.70;;;8.70;99.90;;;;;;5092040;28;20908;-70
2021/12/15 01:34:49;;;;;;;0.80;0.80;;;8.80;99.90;;;;;;5091292;28;20427;-71
2021/12/15 01:37:37;;;;;;;0.40;0.40;;;8.80;99.90;;;;;;5091188;28;20922;-70
2021/12/15 01:40:33;;;;;;;1.70;1.60;;;8.70;99.90;;;;;;5091951;28;20449;-71
2021/12/15 01:43:31;;;;;;;0.40;0.40;;;8.60;99.90;;;;;;5091990;28;20454;-70
2021/12/15 01:49:32;;;;;;;2.87;1.73;;;8.80;99.90;;;;;;5091944;28;20410;-70
2021/12/15 01:52:21;;;;;;;0.87;0.87;;;8.80;99.90;;;;;;5091657;28;20454;-71
2021/12/15 01:55:13;;;;;;;0.67;0.67;;;8.80;99.90;;;;;;5091188;28;20480;-70
2021/12/15 01:58:00;;;;;;;1.43;1.37;;;8.80;99.90;;;;;;5091158;28;20938;-70
2021/12/15 02:00:52;;;;;;;0.50;0.50;;;8.80;99.90;;;;;;5091347;28;20414;-71
2021/12/15 02:03:40;;;;;;;1.67;1.23;;;8.80;99.90;;;;;;5091869;28;20841;-71
2021/12/15 02:06:28;;;;;;;0.40;0.40;;;8.80;99.90;;;;;;5090946;28;20497;-71
2021/12/15 02:09:26;;;;;;;0.77;0.77;;;8.80;99.90;;;;;;5091194;28;20419;-70
2021/12/15 02:12:18;;;;;;;0.50;0.50;;;8.80;99.90;;;;;;5091069;28;20415;-72
2021/12/15 02:15:09;;;;;;;0.40;0.40;;;8.90;99.90;;;;;;5091141;28;20430;-70
2021/12/15 02:17:56;;;;;;;0.40;0.40;;;8.80;99.90;;;;;;5090985;28;20793;-70
2021/12/15 02:20:48;;;;;;;0.40;0.40;;;8.90;99.90;;;;;;5090634;28;20422;-70
2021/12/15 02:23:39;;;;;;;0.40;0.40;;;8.80;99.90;;;;;;5091619;28;20430;-70
2021/12/15 02:26:33;;;;;;;0.50;0.50;;;8.90;99.90;;;;;;5088241;28;20548;-71
2021/12/15 02:29:21;;;;;;;0.50;0.50;;;8.80;99.90;;;;;;5070152;28;20549;-70
2021/12/15 02:32:17;;;;;;;0.40;0.40;;;8.90;99.90;;;;;;5071227;28;20426;-72
2021/12/15 02:38:13;;;;;;;0.50;0.50;;;9.00;99.90;;;;;;5071529;28;20422;-71
2021/12/15 02:41:07;;;;;;;0.40;0.40;;;9.00;99.90;;;;;;5071979;28;20427;-71
2021/12/15 02:43:58;;;;;;;0.40;0.40;;;9.00;99.90;;;;;;5071288;28;20431;-70
2021/12/15 02:46:46;;;;;;;0.40;0.40;;;9.00;99.90;;;;;;5074370;28;21012;-71
2021/12/15 02:49:33;;;;;;;0.40;0.40;;;9.00;99.90;;;;;;5074059;28;20477;-71
2021/12/15 02:52:20;;;;;;;0.40;0.40;;;9.10;99.90;;;;;;5075340;28;20510;-71
2021/12/15 02:55:09;;;;;;;0.40;0.40;;;9.20;99.90;;;;;;5074449;28;20419;-71
2021/12/15 02:57:57;;;;;;;0.40;0.40;;;9.10;99.90;;;;;;5075354;28;20419;-70
2021/12/15 03:00:50;;;;;;;0.40;0.40;;;9.10;99.90;;;;;;5074915;28;20419;-71
2021/12/15 03:04:07;;;;;;;0.40;0.40;;;9.20;99.90;;;;;;5074618;28;20434;-71
2021/12/15 03:07:00;;;;;;;0.40;0.40;;;9.30;99.90;;;;;;5075056;28;20455;-69
2021/12/15 03:15:54;;;;;;;0.50;0.50;;;9.00;99.90;;;;;;5074142;28;20455;-70
2021/12/15 03:18:41;;;;;;;0.50;0.50;;;9.10;99.90;;;;;;5074174;28;20490;-71
2021/12/15 03:21:28;;;;;;;4.00;3.70;;;9.10;99.90;;;;;;5074240;28;20468;-71
2021/12/15 03:24:21;;;;;;;0.40;0.40;;;9.00;99.90;;;;;;5075311;28;20419;-70
2021/12/15 03:27:14;;;;;;;0.40;0.40;;;9.10;99.90;;;;;;5073761;28;21132;-70
2021/12/15 03:36:35;;;;;;;0.40;0.40;;;9.10;99.90;;;;;;5045713;28;20880;-71
2021/12/15 03:39:23;;;;;;;0.40;0.40;;;9.00;99.90;;;;;;5074341;28;20466;-70
2021/12/15 03:42:12;;;;;;;0.40;0.40;;;9.10;99.90;;;;;;5074472;28;20598;-70
2021/12/15 03:45:02;;;;;;;0.40;0.40;;;9.10;99.90;;;;;;5073608;28;20426;-71
2021/12/15 03:47:50;;;;;;;0.40;0.40;;;9.20;99.90;;;;;;5073231;28;20419;-70
2021/12/15 03:50:38;;;;;;;0.40;0.40;;;9.30;99.90;;;;;;5074069;28;20825;-70
2021/12/15 03:53:26;;;;;;;0.93;0.93;;;9.10;99.90;;;;;;5074110;28;20810;-71
2021/12/15 03:56:15;;;;;;;0.40;0.40;;;9.10;99.90;;;;;;5073146;28;20497;-72
2021/12/15 03:59:03;;;;;;;0.40;0.40;;;9.00;99.90;;;;;;5073123;28;20528;-71
2021/12/15 04:01:51;;;;;;;0.40;0.40;;;9.00;99.90;;;;;;5074048;28;20435;-70
2021/12/15 04:04:39;;;;;;;0.60;0.60;;;9.00;99.90;;;;;;5073421;28;20556;-71
2021/12/15 04:07:26;;;;;;;0.40;0.40;;;9.00;99.90;;;;;;5074152;28;20832;-70
2021/12/15 04:10:16;;;;;;;0.40;0.40;;;8.90;99.90;;;;;;5073874;28;20484;-71
2021/12/15 04:13:03;;;;;;;0.40;0.40;;;9.00;99.90;;;;;;5073840;28;20461;-71
2021/12/15 04:15:55;;;;;;;0.40;0.40;;;8.90;99.90;;;;;;5074021;28;20485;-70
2021/12/15 04:18:43;;;;;;;0.40;0.40;;;8.90;99.90;;;;;;5072853;28;20911;-70
2021/12/15 04:21:31;;;;;;;0.40;0.40;;;8.90;99.90;;;;;;5073481;28;20432;-71
2021/12/15 04:24:19;;;;;;;0.40;0.40;;;8.90;99.90;;;;;;5073033;28;20937;-71
2021/12/15 04:27:06;;;;;;;0.40;0.40;;;8.90;99.90;;;;;;5073962;28;20462;-71
2021/12/15 04:29:53;;;;;;;0.40;0.40;;;8.90;99.90;;;;;;5072606;28;20423;-70
2021/12/15 04:32:43;;;;;;;0.40;0.40;;;8.90;99.90;;;;;;5073778;28;20931;-70
2021/12/15 04:35:32;;;;;;;0.40;0.40;;;8.90;99.90;;;;;;5072991;28;20419;-70
2021/12/15 04:38:19;;;;;;;0.40;0.40;;;9.00;99.90;;;;;;5073529;28;20497;-71
2021/12/15 04:41:09;;;;;;;0.40;0.40;;;9.00;99.90;;;;;;5073336;28;20935;-70
2021/12/15 04:43:59;;;;;;;0.40;0.40;;;9.00;99.90;;;;;;5072164;28;20920;-70
2021/12/15 04:46:50;;;;;;;4.57;4.27;;;9.00;99.90;;;;;;5072753;28;20454;-71
2021/12/15 04:49:39;;;;;;;1.73;1.50;;;9.00;99.90;;;;;;5072133;28;20419;-74
2021/12/15 04:52:32;;;;;;;0.40;0.40;;;9.00;99.90;;;;;;5073087;28;20935;-70
2021/12/15 04:55:20;;;;;;;0.40;0.40;;;9.10;99.90;;;;;;5072060;28;20423;-71
2021/12/15 04:58:12;;;;;;;0.40;0.40;;;9.10;99.90;;;;;;5072594;28;20518;-71
2021/12/15 05:01:03;;;;;;;0.40;0.40;;;9.10;99.90;;;;;;5073055;28;20493;-70
2021/12/15 05:03:50;;;;;;;0.40;0.40;;;9.00;99.90;;;;;;5072918;28;20420;-71
2021/12/15 05:06:37;;;;;;;0.40;0.40;;;9.10;99.90;;;;;;5072291;28;20454;-70
2021/12/15 05:09:26;;;;;;;0.40;0.40;;;9.00;99.90;;;;;;5072501;28;20446;-71
2021/12/15 05:12:13;;;;;;;0.40;0.40;;;9.10;99.90;;;;;;5072481;28;20427;-71
2021/12/15 05:15:00;;;;;;;0.40;0.40;;;9.10;99.90;;;;;;5072474;28;20424;-71
2021/12/15 05:17:47;;;;;;;0.40;0.40;;;9.10;99.90;;;;;;5072891;28;20958;-71
2021/12/15 05:20:37;;;;;;;0.40;0.40;;;9.10;99.90;;;;;;5072275;28;21016;-71
2021/12/15 05:23:28;;;;;;;0.40;0.40;;;9.10;99.90;;;;;;5071809;28;20452;-72
2021/12/15 05:26:17;;;;;;;0.40;0.40;;;9.20;99.90;;;;;;5072442;28;20496;-71
2021/12/15 05:29:05;;;;;;;0.40;0.40;;;9.30;99.90;;;;;;5072499;28;20932;-70
2021/12/15 05:31:51;;;;;;;0.40;0.40;;;9.30;99.90;;;;;;5072348;28;20553;-71
2021/12/15 05:34:39;;;;;;;0.40;0.40;;;9.30;99.90;;;;;;5072569;28;20419;-72
2021/12/15 05:37:28;;;;;;;0.40;0.40;;;9.40;99.90;;;;;;5072534;28;20524;-71
2021/12/15 05:40:16;;;;;;;0.40;0.40;;;9.40;99.90;;;;;;5072116;28;20931;-71
2021/12/15 05:43:06;;;;;;;0.40;0.40;;;9.30;99.90;;;;;;5072655;28;20498;-71
2021/12/15 05:45:53;;;;;;;0.40;0.40;;;9.30;99.90;;;;;;5070784;28;20854;-70
2021/12/15 05:48:40;;;;;;;0.60;0.60;;;9.30;99.90;;;;;;5071777;28;20431;-71
2021/12/15 05:51:28;;;;;;;0.40;0.40;;;9.30;99.90;;;;;;5072584;28;20896;-72
2021/12/15 05:54:15;;;;;;;0.40;0.40;;;9.20;99.90;;;;;;5071285;28;20419;-71
2021/12/15 05:57:02;;;;;;;0.40;0.40;;;9.20;99.90;;;;;;5072733;28;20447;-71
2021/12/15 05:59:50;;;;;;;0.40;0.40;;;9.20;99.90;;;;;;5071512;28;20466;-72
2021/12/15 06:02:37;;;;;;;0.40;0.40;;;9.20;99.90;;;;;;5071887;28;20415;-72
2021/12/15 06:05:26;;;;;;;0.50;0.50;;;9.30;99.90;;;;;;5072372;28;20939;-71
2021/12/15 06:08:13;;;;;;;0.40;0.40;;;9.20;99.90;;;;;;5072174;28;21014;-72
2021/12/15 06:11:00;;;;;;;0.40;0.40;;;9.20;99.90;;;;;;5072298;28;20443;-71
2021/12/15 06:13:48;;;;;;;0.50;0.50;;;9.10;99.90;;;;;;5071823;28;20427;-71
2021/12/15 06:16:37;;;;;;;0.40;0.40;;;9.00;99.90;;;;;;5072142;28;20469;-72
2021/12/15 06:19:24;;;;;;;0.40;0.40;;;9.00;99.90;;;;;;5072388;28;20434;-72
2021/12/15 06:22:11;;;;;;;0.40;0.40;;;9.00;99.90;;;;;;5075883;28;20451;-72
2021/12/15 06:24:58;;;;;;;0.40;0.40;;;9.00;99.90;;;;;;5076322;28;20477;-71
2021/12/15 06:27:45;;;;;;;0.43;0.43;;;9.00;99.90;;;;;;5075949;28;20451;-71
2021/12/15 06:30:33;;;;;;;0.40;0.40;;;9.00;99.90;;;;;;5076250;28;20993;-73
2021/12/15 06:33:21;;;;;;;0.40;0.40;;;9.00;99.90;;;;;;5075986;28;20423;-73
2021/12/15 06:36:12;;;;;;;0.50;0.50;;;9.00;99.90;;;;;;5075888;28;20451;-71
2021/12/15 06:38:59;;;;;;;0.40;0.40;;;9.10;99.90;;;;;;5075903;28;20777;-71
2021/12/15 06:41:46;;;;;;;0.40;0.40;;;9.00;99.90;;;;;;5082685;28;20426;-72
2021/12/15 06:44:33;;;;;;;0.40;0.40;;;9.10;99.90;;;;;;5080055;28;20504;-71
2021/12/15 06:59:32;;;;;;;0.50;0.50;;;9.00;99.90;;;;;;5095414;28;20417;-74
2021/12/15 07:02:19;;;;;;;0.40;0.40;;;9.00;99.90;;;;;;5095577;28;20922;-71
2021/12/15 07:05:08;;;;;;;0.40;0.40;;;9.10;99.90;;;;;;5095321;28;20430;-71
2021/12/15 07:07:58;;;;;;;3.13;1.70;;;9.10;99.90;;;;;;5094973;28;20430;-72
2021/12/15 07:10:49;;;;;;;0.40;0.40;;;9.20;99.90;;;;;;5095588;28;20426;-72
2021/12/15 07:13:38;;;;;;;0.40;0.40;;;9.10;99.90;;;;;;5088771;28;20426;-71
2021/12/15 07:16:27;;;;;;;0.40;0.40;;;9.20;99.90;;;;;;5081238;28;20518;-71
2021/12/15 07:19:20;;;;;;;0.40;0.40;;;9.20;99.90;;;;;;5082691;28;20443;-71
2021/12/15 07:22:10;;;;;;;0.40;0.40;;;9.10;99.90;;;;;;5083218;28;20426;-70
2021/12/15 07:24:59;;;;;;;0.40;0.40;;;9.20;99.90;;;;;;5103666;28;20445;-71
2021/12/15 07:27:47;;;;;;;0.50;0.50;;;9.20;99.90;;;;;;5097407;28;20508;-71
2021/12/15 07:30:36;;;;;;;0.40;0.40;;;9.10;99.90;;;;;;5072608;28;20438;-71
2021/12/15 07:33:23;;;;;;;0.40;0.40;;;9.20;99.90;;;;;;5072383;28;20424;-70
2021/12/15 07:36:11;;;;;;;0.50;0.50;;;9.20;99.90;;;;;;5069885;28;20482;-70
2021/12/15 07:38:59;;;;;;;0.50;0.50;;;9.40;99.90;;;;;;5072375;28;20443;-71
2021/12/15 07:41:51;;;;;;;0.40;0.40;;;9.20;99.90;;;;;;5072232;28;20463;-70
2021/12/15 07:44:39;;;;;;;0.40;0.40;;;9.10;99.90;;;;;;5071619;28;20471;-70
2021/12/15 07:47:27;;;;;;;0.50;0.50;;;9.30;99.90;;;;;;5071448;28;20451;-72
2021/12/15 07:50:14;;;;;;;0.40;0.40;;;9.30;99.90;;;;;;5078333;28;20441;-71
2021/12/15 07:53:01;;;;;;;1.13;1.13;;;9.30;99.90;;;;;;5078862;28;20431;-71
2021/12/15 07:55:49;;;;;;;0.40;0.40;;;9.10;99.90;;;;;;5070341;28;20443;-71
2021/12/15 07:58:38;;;;;;;0.40;0.40;;;9.20;99.90;;;;;;5072042;28;20512;-72
2021/12/15 08:01:25;;;;;;;0.40;0.40;;;9.30;99.90;;;;;;5073839;28;20896;-71
2021/12/15 08:04:12;;;;;;;1.07;0.60;;;9.30;99.90;;;;;;5077784;28;20463;-72
2021/12/15 08:06:59;;;;;;;0.40;0.40;;;9.40;99.90;;;;;;5087858;28;20446;-72
2021/12/15 08:09:49;;;;;;;0.40;0.40;;;9.40;99.90;;;;;;5074268;28;20449;-72
2021/12/15 08:12:37;;;;;;;0.47;0.47;;;9.40;99.90;;;;;;5072842;28;20427;-71
2021/12/15 08:15:25;;;;;;;0.50;0.50;;;9.50;99.90;;;;;;5071915;28;21121;-70
2021/12/15 08:18:13;;;;;;;0.60;0.60;;;9.40;99.90;;;;;;5071273;28;20827;-70
2021/12/15 08:21:03;;;;;;;2.20;2.10;;;9.50;99.90;;;;;;5071540;28;20463;-71
2021/12/15 08:23:50;;;;;;;1.17;1.10;;;9.50;99.90;;;;;;5070403;28;20848;-72
2021/12/15 08:26:38;;;;;;;0.80;0.80;;;9.40;99.90;;;;;;5068368;28;20458;-72
2021/12/15 08:29:25;;;;;;;1.00;1.00;;;9.40;99.90;;;;;;5083951;28;20596;-72
2021/12/15 08:32:13;;;;;;;0.40;0.40;;;9.30;99.90;;;;;;5070039;28;20431;-70
2021/12/15 08:35:00;;;;;;;0.60;0.60;;;9.40;99.90;;;;;;5066414;28;20426;-70
2021/12/15 08:37:48;;;;;;;0.50;0.50;;;9.30;99.90;;;;;;5070379;28;20449;-71
2021/12/15 08:40:36;;;;;;;0.40;0.40;;;9.60;99.90;;;;;;5077151;28;20459;-71
2021/12/15 08:43:25;;;;;;;2.00;1.63;;;9.40;99.90;;;;;;5071303;28;20423;-70
2021/12/15 08:46:15;;;;;;;0.40;0.40;;;9.40;99.90;;;;;;5072105;28;20459;-71
2021/12/15 08:49:04;;;;;;;0.50;0.50;;;9.50;99.90;;;;;;5075716;28;20433;-69
2021/12/15 08:51:51;;;;;;;0.40;0.40;;;9.50;99.90;;;;;;5073610;28;20500;-70
2021/12/15 08:54:38;;;;;;;0.40;0.40;;;9.60;99.90;;;;;;5075524;28;20427;-71
2021/12/15 08:57:25;;;;;;;0.43;0.43;;;9.70;99.90;;;;;;5073615;28;20756;-72
2021/12/15 09:00:13;;;;;;;0.40;0.40;;;9.70;99.90;;;;;;5076485;28;20524;-71
2021/12/15 09:03:00;;;;;;;0.50;0.50;;;9.60;99.90;;;;;;5086723;28;20437;-71
2021/12/15 09:05:52;;;;;;;0.40;0.40;;;9.60;99.90;;;;;;5069772;28;20450;-70
2021/12/15 09:08:40;;;;;;;0.50;0.50;;;9.60;99.90;;;;;;5070052;28;20461;-69
2021/12/15 09:11:28;;;;;;;0.50;0.50;;;9.70;99.90;;;;;;5069397;28;20537;-70
2021/12/15 09:14:15;;;;;;;0.50;0.50;;;9.70;99.90;;;;;;5079976;28;20525;-71
2021/12/15 09:17:03;;;;;;;0.47;0.47;;;9.80;99.90;;;;;;5072504;28;20466;-70
2021/12/15 09:19:50;;;;;;;0.40;0.40;;;9.80;99.90;;;;;;5073188;28;20439;-71
2021/12/15 09:22:40;;;;;;;0.50;0.50;;;10.00;99.90;;;;;;5076656;28;20434;-70
2021/12/15 09:25:28;;;;;;;0.40;0.40;;;10.10;99.90;;;;;;5076551;28;20516;-70
2021/12/15 09:28:15;;;;;;;0.40;0.40;;;10.20;99.90;;;;;;5081259;28;20453;-70
2021/12/15 09:31:05;;;;;;;0.40;0.40;;;10.40;99.90;;;;;;5081830;28;20423;-70
2021/12/15 09:33:54;;;;;;;0.40;0.40;;;10.50;99.90;;;;;;5086311;28;20512;-72
2021/12/15 09:36:41;;;;;;;0.60;0.60;;;10.60;99.90;;;;;;5070631;28;20443;-69
2021/12/15 09:39:29;;;;;;;0.40;0.40;;;10.70;99.90;;;;;;5078871;28;20423;-71
2021/12/15 09:42:20;;;;;;;0.40;0.40;;;10.90;99.90;;;;;;5087698;28;20535;-70
2021/12/15 09:45:22;;;;;;;0.40;0.40;;;10.90;99.90;;;;;;5078907;28;21073;-71
2021/12/15 09:57:47;;;;;;;0.50;0.50;;;10.90;99.90;;;;;;5082531;28;20977;-71
2021/12/15 10:03:55;;;;;;;0.40;0.40;;;10.90;99.90;;;;;;5073113;28;20903;-70
2021/12/15 10:06:54;;;;;;;0.50;0.50;;;10.80;99.90;;;;;;5091039;28;20941;-70
2021/12/15 10:19:38;;;;;;;0.40;0.40;;;10.50;99.90;;;;;;5070772;28;21101;-71
2021/12/15 10:22:33;;;;;;;0.40;0.40;;;10.70;99.90;;;;;;5070336;28;20467;-70
2021/12/15 10:25:24;;;;;;;0.60;0.60;;;10.50;99.90;;;;;;5072691;28;20454;-69
2021/12/15 10:28:16;;;;;;;0.60;0.60;;;10.40;99.90;;;;;;5074171;28;20455;-70
2021/12/15 10:31:06;;;;;;;2.50;1.87;;;10.40;99.90;;;;;;5069649;28;20415;-71
2021/12/15 10:33:58;;;;;;;1.27;1.13;;;10.50;99.90;;;;;;5071361;28;20517;-71
2021/12/15 10:36:49;;;;;;;0.40;0.40;;;10.30;99.90;;;;;;5069749;28;20500;-70
2021/12/15 10:39:35;;;;;;;0.50;0.50;;;10.20;99.90;;;;;;5078560;28;20445;-71
2021/12/15 10:42:30;;;;;;;0.50;0.50;;;10.20;99.90;;;;;;5078800;28;20520;-70
2021/12/15 10:45:19;;;;;;;4.63;2.60;;;10.40;99.90;;;;;;5070284;28;20435;-69
2021/12/15 10:48:10;;;;;;;0.60;0.60;;;10.70;99.90;;;;;;5074248;28;20453;-71
2021/12/15 10:50:57;;;;;;;0.93;0.93;;;10.40;99.90;;;;;;5076412;28;20424;-72
2021/12/15 10:53:44;;;;;;;0.60;0.60;;;10.50;99.90;;;;;;5070478;28;20461;-70
2021/12/15 10:56:38;;;;;;;0.83;0.83;;;10.50;99.90;;;;;;5069864;28;20854;-70
2021/12/15 10:59:27;;;;;;;0.40;0.40;;;10.50;99.90;;;;;;5069571;28;20470;-70
2021/12/15 11:02:20;;;;;;;0.70;0.70;;;10.50;99.90;;;;;;5069778;28;20462;-71
2021/12/15 11:05:09;;;;;;;0.40;0.40;;;10.60;99.90;;;;;;5070688;28;20415;-71
2021/12/15 11:07:58;;;;;;;0.40;0.40;;;10.60;99.90;;;;;;5074704;28;20442;-70
2021/12/15 11:10:45;;;;;;;0.63;0.60;;;10.70;99.90;;;;;;5073475;28;20897;-70
2021/12/15 11:13:33;;;;;;;0.60;0.43;;;10.80;99.90;;;;;;5086054;28;20423;-70
2021/12/15 11:16:28;;;;;;;1.13;0.70;;;10.60;99.90;;;;;;5082276;28;20457;-70
2021/12/15 11:19:54;;;;;;;1.53;1.53;;;10.70;99.90;;;;;;5079646;28;20446;-70
2021/12/15 11:22:54;;;;;;;1.53;1.43;;;10.70;99.90;;;;;;5078415;28;20528;-72
2021/12/15 11:25:45;;;;;;;1.13;0.67;;;10.80;99.90;;;;;;5075719;28;20480;-71
2021/12/15 11:28:36;;;;;;;0.40;0.40;;;10.90;99.90;;;;;;5082468;28;20425;-71
2021/12/15 11:31:25;;;;;;;2.13;1.80;;;10.90;99.90;;;;;;5078481;28;20951;-70
2021/12/15 11:34:12;;;;;;;2.50;2.40;;;10.90;99.90;;;;;;5084451;28;20520;-70
2021/12/15 11:36:59;;;;;;;1.20;1.10;;;11.00;99.90;;;;;;5085979;28;20457;-71
2021/12/15 11:39:47;;;;;;;0.60;0.60;;;11.10;99.90;;;;;;5075868;28;20517;-70
2021/12/15 11:42:38;;;;;;;1.50;0.90;;;11.10;99.90;;;;;;5075935;28;20482;-72
2021/12/15 11:45:25;;;;;;;0.40;0.40;;;10.90;99.90;;;;;;5079011;28;20970;-72
2021/12/15 11:48:17;;;;;;;3.50;1.53;;;10.80;99.90;;;;;;5076223;28;20431;-70
2021/12/15 11:51:08;;;;;;;1.27;1.27;;;10.90;99.90;;;;;;5073710;28;20584;-71
2021/12/15 11:53:55;;;;;;;0.63;0.60;;;10.80;99.90;;;;;;5073893;28;20431;-70
2021/12/15 11:56:45;;;;;;;0.40;0.40;;;10.80;99.90;;;;;;5072757;28;20951;-71
2021/12/15 11:59:34;;;;;;;0.40;0.40;;;10.90;99.90;;;;;;5072393;28;20431;-71
2021/12/15 12:02:23;;;;;;;0.60;0.60;;;10.90;99.90;;;;;;5073712;28;20869;-71
2021/12/15 12:05:14;;;;;;;0.97;0.97;;;11.00;99.90;;;;;;5073174;28;20497;-70
2021/12/15 12:08:03;;;;;;;0.60;0.60;;;11.00;99.90;;;;;;5085836;28;20421;-71
2021/12/15 12:10:52;;;;;;;0.40;0.40;;;10.90;99.90;;;;;;5079712;28;20957;-73
2021/12/15 12:13:42;;;;;;;1.07;1.07;;;11.00;99.90;;;;;;5085324;28;20438;-71
2021/12/15 12:16:29;;;;;;;0.80;0.80;;;11.10;99.90;;;;;;5081102;28;21264;-71
2021/12/15 12:19:16;;;;;;;1.27;0.87;;;11.00;99.90;;;;;;5084074;28;20945;-70
2021/12/15 12:22:03;;;;;;;0.40;0.40;;;11.00;99.90;;;;;;5082111;28;20515;-72
2021/12/15 12:24:54;;;;;;;1.10;1.00;;;11.10;99.90;;;;;;5071254;28;20428;-72
2021/12/15 12:27:43;;;;;;;0.90;0.90;;;11.30;99.90;;;;;;5073345;28;20450;-72
2021/12/15 12:30:34;;;;;;;0.50;0.50;;;11.10;99.90;;;;;;5071923;28;20416;-70
2021/12/15 12:33:24;;;;;;;2.00;1.90;;;11.20;99.90;;;;;;5071152;28;20416;-70
2021/12/15 12:36:14;;;;;;;0.50;0.50;;;11.30;99.90;;;;;;5070302;28;20458;-70
2021/12/15 12:39:07;;;;;;;0.40;0.40;;;11.30;99.90;;;;;;5068273;28;20486;-70
2021/12/15 12:41:55;;;;;;;1.27;0.73;;;11.20;99.90;;;;;;5073015;28;20463;-71
2021/12/15 12:44:45;;;;;;;0.47;0.47;;;11.10;99.90;;;;;;5075938;28;20816;-71
2021/12/15 12:47:40;;;;;;;0.40;0.40;;;11.00;99.90;;;;;;5083726;28;20453;-70
2021/12/15 12:59:51;;;;;;;0.40;0.40;;;11.00;99.90;;;;;;5069966;28;20429;-70
2021/12/15 13:02:46;;;;;;;0.50;0.50;;;10.90;99.90;;;;;;5070972;28;20478;-72
2021/12/15 13:05:39;;;;;;;2.93;1.87;;;11.00;99.90;;;;;;5084287;28;20453;-70
2021/12/15 13:08:37;;;;;;;1.03;1.03;;;11.00;99.90;;;;;;5081111;28;20430;-72
2021/12/15 13:11:34;;;;;;;3.40;1.77;;;11.00;99.90;;;;;;5073057;28;20446;-71
2021/12/15 13:14:34;;;;;;;2.60;2.30;;;11.00;99.90;;;;;;5074794;28;20445;-71
2021/12/15 13:17:24;;;;;;;1.47;0.67;;;10.90;99.90;;;;;;5079696;28;20536;-70
2021/12/15 13:20:25;;;;;;;0.40;0.40;;;10.90;99.90;;;;;;5084342;28;21233;-72
2021/12/15 13:23:38;;;;;;;0.40;0.40;;;10.90;99.90;;;;;;5075704;28;20474;-72
2021/12/15 13:29:53;;;;;;;0.50;0.50;;;10.90;99.90;;;;;;5080369;28;20423;-73
2021/12/15 13:32:47;;;;;;;0.50;0.50;;;10.80;99.90;;;;;;5070066;28;20427;-71
2021/12/15 13:35:45;;;;;;;0.40;0.40;;;10.80;99.90;;;;;;5078689;28;20537;-70
2021/12/15 13:38:35;;;;;;;0.50;0.50;;;10.80;99.90;;;;;;5072845;28;20540;-70
2021/12/15 13:41:38;;;;;;;0.70;0.70;;;10.80;99.90;;;;;;5071573;28;20465;-70
2021/12/15 13:44:30;;;;;;;3.87;1.27;;;10.70;99.90;;;;;;5073698;28;20438;-72
2021/12/15 13:47:21;;;;;;;0.43;0.43;;;10.70;99.90;;;;;;5070890;28;20548;-71
2021/12/15 13:50:17;;;;;;;0.60;0.60;;;10.70;99.90;;;;;;5081941;28;20494;-71
2021/12/15 13:53:06;;;;;;;6.03;1.00;;;10.60;99.90;;;;;;5089337;28;20422;-69
2021/12/15 13:55:53;;;;;;;0.40;0.40;;;10.60;99.90;;;;;;5081447;28;20443;-69
2021/12/15 13:58:40;;;;;;;2.30;1.40;;;10.60;99.90;;;;;;5082086;28;20434;-70
2021/12/15 14:01:27;;;;;;;0.40;0.40;;;10.60;99.90;;;;;;5086648;28;20443;-70
2021/12/15 14:04:34;;;;;;;0.70;0.70;;;10.60;99.90;;;;;;5076359;28;20507;-71
2021/12/15 14:07:36;;;;;;;2.00;1.17;;;10.70;99.90;;;;;;5089802;28;20480;-71
2021/12/15 14:10:58;;;;;;;0.50;0.50;;;10.60;99.90;;;;;;5078026;28;20450;-70
2021/12/15 14:13:54;;;;;;;1.43;1.33;;;10.50;99.90;;;;;;5085648;28;20438;-71
2021/12/15 14:16:46;;;;;;;0.60;0.60;;;10.60;99.90;;;;;;5076697;28;20994;-69
2021/12/15 14:19:36;;;;;;;2.00;1.03;;;10.50;99.90;;;;;;5081972;28;20438;-70
2021/12/15 14:22:23;;;;;;;2.73;2.53;;;10.60;99.90;;;;;;5084025;28;20870;-71
2021/12/15 14:25:11;;;;;;;1.90;1.80;;;10.40;99.90;;;;;;5084149;28;20435;-71
2021/12/15 14:28:06;;;;;;;3.70;1.53;;;10.40;99.90;;;;;;5073636;28;20436;-72
2021/12/15 14:30:59;;;;;;;3.80;0.70;;;10.40;99.90;;;;;;5088948;28;20987;-70
2021/12/15 14:33:50;;;;;;;0.40;0.40;;;10.40;99.90;;;;;;5089044;28;20524;-71
2021/12/15 14:36:39;;;;;;;0.60;0.60;;;10.40;99.90;;;;;;5089084;28;20508;-71
2021/12/15 14:39:29;;;;;;;0.40;0.40;;;10.40;99.90;;;;;;5086493;28;20450;-71
2021/12/15 14:42:21;;;;;;;0.40;0.40;;;10.40;99.90;;;;;;5083500;28;20492;-70
2021/12/15 14:45:11;;;;;;;0.40;0.40;;;10.40;99.90;;;;;;5090641;28;20955;-70
2021/12/15 14:47:59;;;;;;;0.50;0.50;;;10.40;99.90;;;;;;5084485;28;20426;-71
2021/12/15 14:50:47;;;;;;;1.53;0.77;;;10.50;99.90;;;;;;5085421;28;20430;-69
2021/12/15 14:53:41;;;;;;;0.50;0.50;;;10.40;99.90;;;;;;5086660;28;20524;-72
2021/12/15 14:56:47;;;;;;;0.50;0.50;;;10.30;99.90;;;;;;5085161;28;20438;-71
2021/12/15 14:59:36;;;;;;;0.40;0.40;;;10.20;99.90;;;;;;5084175;28;20912;-71
2021/12/15 15:02:27;;;;;;;0.50;0.50;;;10.10;99.90;;;;;;5088817;28;20573;-71
2021/12/15 15:05:18;;;;;;;0.50;0.50;;;10.20;99.90;;;;;;5071741;28;20522;-71
2021/12/15 15:08:08;;;;;;;1.93;1.83;;;10.20;99.90;;;;;;5073370;28;20431;-70
2021/12/15 15:10:56;;;;;;;0.40;0.40;;;10.40;99.90;;;;;;5085425;28;20442;-72
2021/12/15 15:13:52;;;;;;;0.63;0.50;;;10.20;99.90;;;;;;5081916;28;20427;-70
2021/12/15 15:16:38;;;;;;;0.50;0.50;;;10.20;99.90;;;;;;5081139;28;21014;-71
2021/12/15 15:19:28;;;;;;;0.60;0.60;;;10.30;99.90;;;;;;5082647;28;20484;-70
2021/12/15 15:22:17;;;;;;;0.40;0.40;;;10.20;99.90;;;;;;5075680;28;21320;-71
2021/12/15 15:25:07;;;;;;;1.43;1.03;;;10.10;99.90;;;;;;5074992;28;20447;-71
2021/12/15 15:27:58;;;;;;;2.10;1.83;;;10.10;99.90;;;;;;5074853;28;20454;-70
2021/12/15 15:30:48;;;;;;;1.63;1.63;;;10.10;99.90;;;;;;5073076;28;20430;-70
2021/12/15 15:33:38;;;;;;;0.40;0.40;;;10.10;99.90;;;;;;5088031;28;20434;-72
2021/12/15 15:36:28;;;;;;;2.87;1.50;;;10.10;99.90;;;;;;5083532;28;20493;-72
2021/12/15 15:39:15;;;;;;;0.40;0.40;;;10.20;99.90;;;;;;5084102;28;21854;-72
2021/12/15 15:42:02;;;;;;;0.70;0.50;;;10.20;99.90;;;;;;5082708;28;20528;-70
2021/12/15 15:44:49;;;;;;;0.40;0.40;;;10.10;99.90;;;;;;5082235;28;20460;-70
2021/12/15 15:47:36;;;;;;;0.50;0.50;;;10.10;99.90;;;;;;5072632;28;20447;-70
2021/12/15 15:50:24;;;;;;;1.47;1.07;;;10.10;99.90;;;;;;5071319;28;20521;-71
2021/12/15 15:53:13;;;;;;;0.47;0.47;;;10.10;99.90;;;;;;5070688;28;20971;-71
2021/12/15 15:56:07;;;;;;;0.40;0.40;;;10.00;99.90;;;;;;5071226;28;20431;-71
2021/12/15 15:58:57;;;;;;;0.50;0.50;;;10.00;99.90;;;;;;5072269;28;20497;-72
2021/12/15 16:01:47;;;;;;;1.83;1.03;;;10.00;99.90;;;;;;5072203;28;20462;-71